Time;durP1;ratioP1;P1;durP2;ratioP2;P2;SDS_P1;SDS_P2;PMS_P1;PMS_P2;Temp;Humidity;BMP_temperature;BMP_pressure;BME280_temperature;BME280_humidity;BME280_pressure;Samples;Min_cycle;Max_cycle;Signal;HPM_P1;HPM_P2
2023/05/05 00:01:59;;;;;;;19.92;14.95;;;;;;;;;;5032572;28;20029;-57
2023/05/05 00:04:25;;;;;;;18.58;14.38;;;;;;;;;;5030559;28;20040;-56
2023/05/05 00:06:51;;;;;;;18.98;14.13;;;;;;;;;;5032531;28;20064;-57
2023/05/05 00:09:17;;;;;;;19.67;14.65;;;;;;;;;;5032646;28;20026;-57
2023/05/05 00:11:43;;;;;;;23.60;15.23;;;;;;;;;;5032392;28;20032;-59
2023/05/05 00:14:10;;;;;;;19.30;14.55;;;;;;;;;;5030852;28;20113;-56
2023/05/05 00:16:36;;;;;;;21.23;14.90;;;;;;;;;;5032501;28;20079;-57
2023/05/05 00:19:02;;;;;;;22.30;14.55;;;;;;;;;;5032169;28;20545;-59
2023/05/05 00:21:28;;;;;;;19.92;14.40;;;;;;;;;;5032138;28;20486;-58
2023/05/05 00:23:54;;;;;;;23.40;15.27;;;;;;;;;;5031973;28;20034;-54
2023/05/05 00:26:20;;;;;;;20.40;14.80;;;;;;;;;;5032015;28;20033;-58
2023/05/05 00:28:47;;;;;;;19.10;14.82;;;;;;;;;;5032136;28;20049;-58
2023/05/05 00:31:16;;;;;;;21.13;14.15;;;;;;;;;;5032275;28;20021;-57
2023/05/05 00:33:42;;;;;;;23.42;14.93;;;;;;;;;;5032189;28;20048;-58
2023/05/05 00:36:08;;;;;;;20.85;14.88;;;;;;;;;;5032029;28;20045;-58
2023/05/05 00:38:34;;;;;;;23.00;15.40;;;;;;;;;;5032004;28;20082;-56
2023/05/05 00:41:00;;;;;;;19.80;14.48;;;;;;;;;;5032074;28;20477;-57
2023/05/05 00:43:26;;;;;;;19.90;14.65;;;;;;;;;;5030774;28;20112;-57
2023/05/05 00:45:59;;;;;;;20.90;14.55;;;;;;;;;;5031797;28;20374;-56
2023/05/05 00:48:25;;;;;;;22.85;15.60;;;;;;;;;;5032014;28;20515;-56
2023/05/05 00:50:51;;;;;;;20.85;14.30;;;;;;;;;;5030633;28;20497;-57
2023/05/05 00:53:17;;;;;;;21.52;14.68;;;;;;;;;;5032046;28;20044;-58
2023/05/05 00:55:43;;;;;;;20.73;14.50;;;;;;;;;;5030780;28;20021;-58
2023/05/05 00:58:09;;;;;;;23.38;15.10;;;;;;;;;;5031816;28;20032;-53
2023/05/05 01:00:35;;;;;;;21.38;14.82;;;;;;;;;;5031579;28;20039;-55
2023/05/05 01:03:01;;;;;;;23.55;14.68;;;;;;;;;;5044050;28;20120;-57
2023/05/05 01:05:32;;;;;;;20.70;14.27;;;;;;;;;;5051362;28;20056;-58
2023/05/05 01:08:05;;;;;;;22.65;15.00;;;;;;;;;;5051678;28;20025;-59
2023/05/05 01:10:40;;;;;;;20.65;14.88;;;;;;;;;;5051570;28;20029;-59
2023/05/05 01:13:20;;;;;;;20.20;14.50;;;;;;;;;;5051602;28;20440;-57
2023/05/05 01:15:57;;;;;;;22.25;14.40;;;;;;;;;;5051354;28;20041;-58
2023/05/05 01:18:31;;;;;;;20.55;14.40;;;;;;;;;;5055975;28;20100;-54
2023/05/05 01:20:57;;;;;;;18.60;14.10;;;;;;;;;;5056202;28;20032;-57
2023/05/05 01:23:47;;;;;;;21.27;14.60;;;;;;;;;;5055809;28;20020;-58
2023/05/05 01:26:32;;;;;;;21.10;14.70;;;;;;;;;;5047618;28;20033;-58
2023/05/05 01:29:02;;;;;;;21.17;14.90;;;;;;;;;;5054402;28;20059;-59
2023/05/05 01:31:34;;;;;;;20.20;15.07;;;;;;;;;;5055440;28;20104;-59
2023/05/05 01:34:03;;;;;;;20.92;14.40;;;;;;;;;;5039835;28;20432;-59
2023/05/05 01:36:36;;;;;;;21.08;15.45;;;;;;;;;;5035846;28;20104;-59
2023/05/05 01:39:03;;;;;;;22.48;14.73;;;;;;;;;;5035674;28;20060;-59
2023/05/05 01:41:35;;;;;;;19.88;14.75;;;;;;;;;;5035626;28;20029;-57
2023/05/05 01:44:04;;;;;;;24.73;15.40;;;;;;;;;;5034086;28;20061;-59
2023/05/05 01:46:30;;;;;;;;;;;;;;;;;;5035772;28;20559;-59
2023/05/05 01:48:56;;;;;;;21.83;14.70;;;;;;;;;;5035508;28;19913;-58
2023/05/05 01:51:23;;;;;;;21.70;14.60;;;;;;;;;;5035475;28;20489;-59
2023/05/05 01:53:51;;;;;;;20.05;14.32;;;;;;;;;;5035457;28;20064;-59
2023/05/05 01:56:18;;;;;;;20.30;14.45;;;;;;;;;;5035492;28;20057;-59
2023/05/05 01:58:44;;;;;;;21.27;14.15;;;;;;;;;;5034711;28;20041;-57
2023/05/05 02:01:12;;;;;;;21.58;15.05;;;;;;;;;;5035602;28;20033;-57
2023/05/05 02:03:38;;;;;;;20.85;14.30;;;;;;;;;;5035608;28;20026;-59
2023/05/05 02:06:05;;;;;;;18.88;14.43;;;;;;;;;;5035415;28;20097;-58
2023/05/05 02:08:32;;;;;;;21.35;15.35;;;;;;;;;;5035013;28;20022;-59
2023/05/05 02:10:58;;;;;;;19.58;14.32;;;;;;;;;;5033682;28;20029;-60
2023/05/05 02:13:25;;;;;;;20.10;15.27;;;;;;;;;;5034989;28;20469;-59
2023/05/05 02:15:51;;;;;;;21.45;16.05;;;;;;;;;;5033490;28;20048;-58
2023/05/05 02:18:17;;;;;;;20.33;14.55;;;;;;;;;;5035274;28;20022;-60
2023/05/05 02:20:43;;;;;;;21.55;15.65;;;;;;;;;;5034885;28;20025;-57
2023/05/05 02:23:09;;;;;;;21.65;15.50;;;;;;;;;;5035109;28;20116;-59
2023/05/05 02:25:39;;;;;;;20.42;14.98;;;;;;;;;;5034647;28;20060;-56
2023/05/05 02:28:08;;;;;;;21.98;15.15;;;;;;;;;;5032981;28;20036;-60
2023/05/05 02:30:35;;;;;;;23.27;14.90;;;;;;;;;;5033054;28;20060;-57
2023/05/05 02:33:06;;;;;;;21.10;14.40;;;;;;;;;;5034727;28;20436;-59
2023/05/05 02:35:36;;;;;;;20.10;14.63;;;;;;;;;;5034238;28;20449;-58
2023/05/05 02:38:04;;;;;;;19.73;14.38;;;;;;;;;;5033327;28;20500;-59
2023/05/05 02:40:31;;;;;;;21.55;15.07;;;;;;;;;;5035187;28;20437;-59
2023/05/05 02:42:59;;;;;;;20.13;14.77;;;;;;;;;;5034655;28;20037;-53
2023/05/05 02:45:26;;;;;;;25.33;14.67;;;;;;;;;;5034092;28;20164;-58
2023/05/05 02:47:52;;;;;;;22.10;14.48;;;;;;;;;;5034143;28;20481;-57
2023/05/05 02:50:18;;;;;;;22.92;14.50;;;;;;;;;;5034367;28;20026;-58
2023/05/05 02:52:44;;;;;;;20.50;14.80;;;;;;;;;;5034395;28;20041;-59
2023/05/05 02:55:10;;;;;;;23.15;15.13;;;;;;;;;;5033774;28;20026;-59
2023/05/05 02:57:36;;;;;;;21.55;14.23;;;;;;;;;;5033871;28;20026;-59
2023/05/05 03:00:05;;;;;;;20.02;14.68;;;;;;;;;;5033843;28;20389;-59
2023/05/05 03:02:31;;;;;;;22.05;15.13;;;;;;;;;;5032511;28;20057;-59
2023/05/05 03:05:03;;;;;;;21.02;15.65;;;;;;;;;;5033368;28;20075;-55
2023/05/05 03:07:29;;;;;;;21.42;16.02;;;;;;;;;;5033465;28;20087;-58
2023/05/05 03:10:15;;;;;;;23.25;15.80;;;;;;;;;;5033708;28;20029;-60
2023/05/05 03:13:00;;;;;;;20.77;15.80;;;;;;;;;;5033750;28;20045;-55
2023/05/05 03:15:35;;;;;;;23.15;16.65;;;;;;;;;;5032134;28;20021;-54
2023/05/05 03:18:02;;;;;;;22.77;15.55;;;;;;;;;;5033402;28;20034;-55
2023/05/05 03:20:28;;;;;;;22.08;16.00;;;;;;;;;;5033855;28;20029;-57
2023/05/05 03:22:54;;;;;;;21.90;15.80;;;;;;;;;;5033379;28;20026;-55
2023/05/05 03:25:21;;;;;;;24.30;16.60;;;;;;;;;;5033290;28;20030;-58
2023/05/05 03:27:47;;;;;;;23.92;16.17;;;;;;;;;;5033195;28;20079;-60
2023/05/05 03:30:13;;;;;;;21.98;15.05;;;;;;;;;;5033055;28;20470;-59
2023/05/05 03:32:39;;;;;;;23.23;16.08;;;;;;;;;;5031740;28;20030;-58
2023/05/05 03:35:06;;;;;;;21.23;16.20;;;;;;;;;;5032643;28;20156;-59
2023/05/05 03:37:32;;;;;;;22.23;14.55;;;;;;;;;;5032881;28;20022;-58
2023/05/05 03:39:58;;;;;;;23.45;15.82;;;;;;;;;;5032132;28;20489;-59
2023/05/05 03:42:24;;;;;;;24.00;15.77;;;;;;;;;;5032465;28;20033;-60
2023/05/05 03:44:52;;;;;;;22.35;15.40;;;;;;;;;;5032582;28;20022;-58
2023/05/05 03:47:18;;;;;;;21.88;15.30;;;;;;;;;;5031301;28;20080;-59
2023/05/05 03:49:44;;;;;;;21.58;15.18;;;;;;;;;;5032626;28;20037;-60
2023/05/05 03:52:10;;;;;;;21.98;15.05;;;;;;;;;;5031368;28;20032;-57
2023/05/05 03:54:36;;;;;;;26.02;15.38;;;;;;;;;;5031116;28;20449;-59
2023/05/05 03:57:02;;;;;;;21.85;15.60;;;;;;;;;;5032681;28;20014;-59
2023/05/05 03:59:28;;;;;;;24.15;17.30;;;;;;;;;;5032836;28;20497;-57
2023/05/05 04:01:54;;;;;;;21.45;15.95;;;;;;;;;;5032468;28;20028;-58
2023/05/05 04:04:20;;;;;;;23.23;16.40;;;;;;;;;;5032258;28;20048;-59
2023/05/05 04:06:46;;;;;;;20.73;15.20;;;;;;;;;;5031140;28;20060;-59
2023/05/05 04:09:13;;;;;;;22.52;16.70;;;;;;;;;;5031303;28;20025;-60
2023/05/05 04:11:39;;;;;;;22.70;15.60;;;;;;;;;;5031333;28;20037;-59
2023/05/05 04:14:05;;;;;;;23.27;16.48;;;;;;;;;;5031055;28;20067;-58
2023/05/05 04:16:31;;;;;;;22.15;15.70;;;;;;;;;;5030969;28;20573;-59
2023/05/05 04:18:57;;;;;;;23.63;16.63;;;;;;;;;;5030964;28;20220;-56
2023/05/05 04:21:23;;;;;;;21.00;16.02;;;;;;;;;;5032413;28;20338;-58
2023/05/05 04:23:49;;;;;;;24.95;15.88;;;;;;;;;;5032323;28;20033;-57
2023/05/05 04:26:15;;;;;;;23.67;16.83;;;;;;;;;;5032266;28;20477;-59
2023/05/05 04:28:41;;;;;;;23.40;16.13;;;;;;;;;;5030669;28;20083;-60
2023/05/05 04:31:07;;;;;;;24.88;16.15;;;;;;;;;;5031759;28;20022;-56
2023/05/05 04:33:33;;;;;;;21.25;15.95;;;;;;;;;;5030700;28;20112;-59
2023/05/05 04:35:59;;;;;;;21.98;15.40;;;;;;;;;;5031492;28;20021;-56
2023/05/05 04:38:25;;;;;;;25.60;16.90;;;;;;;;;;5031860;28;20033;-58
2023/05/05 04:40:51;;;;;;;22.15;16.55;;;;;;;;;;5031785;28;20667;-55
2023/05/05 04:43:17;;;;;;;24.70;16.55;;;;;;;;;;5031612;28;20025;-60
2023/05/05 04:45:51;;;;;;;27.52;16.45;;;;;;;;;;5031522;28;20029;-60
2023/05/05 04:48:19;;;;;;;22.65;16.67;;;;;;;;;;5030374;28;20059;-59
2023/05/05 04:50:45;;;;;;;22.40;16.88;;;;;;;;;;5031570;28;20036;-56
2023/05/05 04:53:11;;;;;;;24.20;17.30;;;;;;;;;;5031686;28;20029;-58
2023/05/05 04:55:38;;;;;;;24.08;17.63;;;;;;;;;;5031432;28;20096;-57
2023/05/05 04:58:04;;;;;;;23.92;17.42;;;;;;;;;;5031495;28;20032;-58
2023/05/05 05:00:31;;;;;;;25.30;18.35;;;;;;;;;;5031440;28;20452;-57
2023/05/05 05:02:57;;;;;;;24.55;18.27;;;;;;;;;;5031471;28;20021;-58
2023/05/05 05:05:23;;;;;;;24.92;17.35;;;;;;;;;;5027607;28;20029;-53
2023/05/05 05:07:49;;;;;;;24.40;17.27;;;;;;;;;;5029816;28;20052;-57
2023/05/05 05:10:16;;;;;;;24.00;18.48;;;;;;;;;;5030372;28;20120;-56
2023/05/05 05:12:42;;;;;;;24.75;17.77;;;;;;;;;;5031031;28;20855;-57
2023/05/05 05:15:08;;;;;;;25.10;18.58;;;;;;;;;;5031014;28;20478;-57
2023/05/05 05:17:34;;;;;;;24.58;18.13;;;;;;;;;;5030904;28;20091;-57
2023/05/05 05:20:03;;;;;;;24.75;18.80;;;;;;;;;;5030539;28;20461;-55
2023/05/05 05:22:29;;;;;;;24.33;18.02;;;;;;;;;;5031364;28;20018;-55
2023/05/05 05:24:55;;;;;;;26.17;17.70;;;;;;;;;;5031021;28;20104;-56
2023/05/05 05:27:21;;;;;;;25.73;18.55;;;;;;;;;;5030828;28;20113;-56
2023/05/05 05:29:47;;;;;;;24.48;17.70;;;;;;;;;;5030867;28;20029;-57
2023/05/05 05:32:14;;;;;;;28.88;18.88;;;;;;;;;;5030815;28;20052;-57
2023/05/05 05:34:40;;;;;;;26.23;17.92;;;;;;;;;;5029376;28;20022;-58
2023/05/05 05:37:06;;;;;;;25.38;18.33;;;;;;;;;;5026221;28;20032;-57
2023/05/05 05:39:32;;;;;;;34.78;20.98;;;;;;;;;;5029093;28;20509;-56
2023/05/05 05:41:58;;;;;;;26.52;18.48;;;;;;;;;;5029550;28;20029;-58
2023/05/05 05:44:24;;;;;;;26.15;17.90;;;;;;;;;;5030739;28;20035;-56
2023/05/05 05:46:50;;;;;;;24.92;18.20;;;;;;;;;;5045016;23;20254;-53
2023/05/05 05:49:16;;;;;;;25.88;19.52;;;;;;;;;;5030516;28;20037;-51
2023/05/05 05:51:41;;;;;;;24.83;18.52;;;;;;;;;;5030526;28;20447;-51
2023/05/05 05:54:07;;;;;;;27.17;19.35;;;;;;;;;;5029946;28;20049;-61
2023/05/05 05:56:33;;;;;;;27.30;20.17;;;;;;;;;;5031219;28;20446;-59
2023/05/05 05:59:00;;;;;;;25.35;19.60;;;;;;;;;;5030824;28;20006;-60
2023/05/05 06:01:26;;;;;;;25.90;20.17;;;;;;;;;;5030566;28;20018;-56
2023/05/05 06:03:52;;;;;;;25.13;20.88;;;;;;;;;;5033167;28;20107;-57
2023/05/05 06:06:18;;;;;;;27.30;20.35;;;;;;;;;;5051453;28;20146;-59
2023/05/05 06:08:44;;;;;;;27.65;20.50;;;;;;;;;;5054347;28;20029;-59
2023/05/05 06:11:10;;;;;;;26.23;20.58;;;;;;;;;;5054413;28;20059;-58
2023/05/05 06:13:36;;;;;;;26.20;19.98;;;;;;;;;;5054005;28;20423;-62
2023/05/05 06:16:02;;;;;;;26.55;21.08;;;;;;;;;;5054236;28;20021;-58
2023/05/05 06:18:28;;;;;;;25.90;20.70;;;;;;;;;;5054219;28;20032;-61
2023/05/05 06:20:54;;;;;;;29.58;22.83;;;;;;;;;;5053821;28;20041;-57
2023/05/05 06:23:20;;;;;;;29.10;21.73;;;;;;;;;;5053887;28;20064;-59
2023/05/05 06:25:46;;;;;;;28.83;21.42;;;;;;;;;;5035623;28;20035;-60
2023/05/05 06:28:12;;;;;;;28.30;22.35;;;;;;;;;;5053484;28;20404;-61
2023/05/05 06:30:38;;;;;;;28.30;21.55;;;;;;;;;;5053577;28;20029;-61
2023/05/05 06:33:04;;;;;;;29.30;22.25;;;;;;;;;;5035893;28;20032;-62
2023/05/05 06:35:30;;;;;;;28.98;22.40;;;;;;;;;;5053379;28;20443;-62
2023/05/05 06:37:56;;;;;;;29.98;22.15;;;;;;;;;;5053459;28;20342;-60
2023/05/05 06:40:22;;;;;;;28.77;23.67;;;;;;;;;;5037630;28;20029;-61
2023/05/05 06:42:48;;;;;;;30.63;22.33;;;;;;;;;;5033718;28;20554;-60
2023/05/05 06:45:14;;;;;;;31.95;22.40;;;;;;;;;;5033284;28;20033;-58
2023/05/05 06:47:41;;;;;;;27.83;21.23;;;;;;;;;;5033221;28;20091;-59
2023/05/05 06:50:08;;;;;;;27.67;22.33;;;;;;;;;;5032866;28;20030;-61
2023/05/05 06:52:34;;;;;;;28.30;21.48;;;;;;;;;;5033268;28;20108;-60
2023/05/05 06:55:00;;;;;;;26.27;21.33;;;;;;;;;;5031665;28;20161;-59
2023/05/05 06:57:26;;;;;;;30.48;22.38;;;;;;;;;;5033309;28;20095;-60
2023/05/05 06:59:52;;;;;;;28.65;20.73;;;;;;;;;;5033056;28;20025;-62
2023/05/05 07:02:18;;;;;;;26.50;20.40;;;;;;;;;;5033217;28;20026;-59
2023/05/05 07:04:45;;;;;;;25.35;19.92;;;;;;;;;;5032999;28;20022;-60
2023/05/05 07:07:11;;;;;;;26.85;20.77;;;;;;;;;;5052930;28;20393;-60
2023/05/05 07:09:37;;;;;;;26.45;20.40;;;;;;;;;;5053552;28;20029;-60
2023/05/05 07:12:03;;;;;;;29.33;21.10;;;;;;;;;;5052958;28;20089;-57
2023/05/05 07:14:29;;;;;;;25.63;19.38;;;;;;;;;;5034457;28;20044;-60
2023/05/05 07:16:55;;;;;;;25.35;18.95;;;;;;;;;;5052873;28;20504;-59
2023/05/05 07:19:22;;;;;;;26.38;19.90;;;;;;;;;;5052576;28;20044;-60
2023/05/05 07:21:48;;;;;;;22.02;17.65;;;;;;;;;;5052876;28;20028;-59
2023/05/05 07:24:14;;;;;;;24.85;18.30;;;;;;;;;;5052365;28;20024;-59
2023/05/05 07:26:40;;;;;;;25.27;19.90;;;;;;;;;;5052628;28;20030;-59
2023/05/05 07:29:06;;;;;;;23.40;18.23;;;;;;;;;;5053071;28;20025;-59
2023/05/05 07:31:32;;;;;;;23.55;16.20;;;;;;;;;;5052933;28;20485;-61
2023/05/05 07:33:58;;;;;;;19.80;15.45;;;;;;;;;;5052548;28;20021;-60
2023/05/05 07:36:26;;;;;;;21.10;16.63;;;;;;;;;;5053212;28;20017;-60
2023/05/05 07:38:52;;;;;;;21.77;16.00;;;;;;;;;;5053114;28;20021;-57
2023/05/05 07:41:18;;;;;;;21.05;16.65;;;;;;;;;;5053007;28;20036;-60
2023/05/05 07:43:45;;;;;;;21.55;15.80;;;;;;;;;;5052814;28;20025;-58
2023/05/05 07:46:11;;;;;;;24.85;16.08;;;;;;;;;;5034867;28;20032;-60
2023/05/05 07:48:39;;;;;;;21.25;15.60;;;;;;;;;;5052947;28;20461;-58
2023/05/05 07:51:05;;;;;;;23.42;17.25;;;;;;;;;;5052412;28;20025;-60
2023/05/05 07:53:31;;;;;;;22.52;16.35;;;;;;;;;;5052334;28;20074;-61
2023/05/05 07:55:58;;;;;;;21.65;16.63;;;;;;;;;;5052497;28;20108;-60
2023/05/05 07:58:24;;;;;;;20.95;16.13;;;;;;;;;;5052369;28;20476;-58
2023/05/05 08:00:50;;;;;;;18.80;14.25;;;;;;;;;;5052190;28;20028;-61
2023/05/05 08:03:18;;;;;;;21.35;15.93;;;;;;;;;;5052121;28;20032;-61
2023/05/05 08:05:44;;;;;;;22.75;16.25;;;;;;;;;;5052139;28;20067;-60
2023/05/05 08:08:10;;;;;;;21.85;17.27;;;;;;;;;;5051447;28;20585;-60
2023/05/05 08:10:37;;;;;;;23.00;17.35;;;;;;;;;;5051388;28;20118;-59
2023/05/05 08:13:03;;;;;;;22.13;17.27;;;;;;;;;;5033973;28;20388;-62
2023/05/05 08:15:29;;;;;;;23.42;17.23;;;;;;;;;;5051650;28;20028;-60
2023/05/05 08:17:55;;;;;;;22.30;17.25;;;;;;;;;;5051891;28;20021;-59
2023/05/05 08:20:21;;;;;;;21.33;17.15;;;;;;;;;;5051730;28;20032;-62
2023/05/05 08:22:47;;;;;;;22.02;17.40;;;;;;;;;;5034221;28;20377;-59
2023/05/05 08:25:14;;;;;;;20.75;16.77;;;;;;;;;;5051773;28;20461;-59
2023/05/05 08:27:41;;;;;;;22.92;17.00;;;;;;;;;;5033891;28;20021;-60
2023/05/05 08:30:07;;;;;;;20.67;16.77;;;;;;;;;;5051491;28;20159;-60
2023/05/05 08:32:33;;;;;;;20.30;16.40;;;;;;;;;;5051859;28;20028;-63
2023/05/05 08:35:02;;;;;;;20.17;15.40;;;;;;;;;;5051233;28;20446;-59
2023/05/05 08:37:28;;;;;;;19.98;14.40;;;;;;;;;;5033391;28;20061;-59
2023/05/05 08:39:55;;;;;;;20.25;15.23;;;;;;;;;;5033083;28;20041;-62
2023/05/05 08:42:21;;;;;;;20.23;16.17;;;;;;;;;;5051120;28;20432;-59
2023/05/05 08:44:47;;;;;;;18.60;14.43;;;;;;;;;;5050798;28;20033;-60
2023/05/05 08:47:15;;;;;;;21.13;14.95;;;;;;;;;;5050823;28;20491;-60
2023/05/05 08:49:45;;;;;;;20.17;14.68;;;;;;;;;;5050872;28;20092;-60
2023/05/05 08:52:13;;;;;;;18.70;15.13;;;;;;;;;;5033237;28;20107;-60
2023/05/05 08:54:42;;;;;;;18.50;14.48;;;;;;;;;;5050261;28;20488;-63
2023/05/05 08:57:10;;;;;;;19.13;15.25;;;;;;;;;;5050618;28;20017;-60
2023/05/05 08:59:36;;;;;;;19.27;14.82;;;;;;;;;;5050725;28;20036;-59
2023/05/05 09:02:03;;;;;;;19.92;15.02;;;;;;;;;;5050444;28;20095;-62
2023/05/05 09:04:29;;;;;;;20.27;15.20;;;;;;;;;;5049965;28;20099;-59
2023/05/05 09:06:59;;;;;;;18.42;14.05;;;;;;;;;;5032481;28;20048;-61
2023/05/05 09:09:25;;;;;;;18.77;14.13;;;;;;;;;;5050592;28;20381;-61
2023/05/05 09:11:51;;;;;;;18.65;14.57;;;;;;;;;;5050613;28;20028;-61
2023/05/05 09:14:18;;;;;;;19.67;15.15;;;;;;;;;;5050670;28;20378;-59
2023/05/05 09:16:44;;;;;;;19.65;14.88;;;;;;;;;;5050346;28;20105;-59
2023/05/05 09:19:10;;;;;;;19.42;14.95;;;;;;;;;;5050261;28;20495;-60
2023/05/05 09:21:39;;;;;;;20.70;15.98;;;;;;;;;;5049915;28;20131;-60
2023/05/05 09:24:09;;;;;;;19.02;14.55;;;;;;;;;;5050462;28;20095;-61
2023/05/05 09:26:37;;;;;;;20.45;15.55;;;;;;;;;;5042540;28;20025;-61
2023/05/05 09:29:03;;;;;;;19.77;15.33;;;;;;;;;;5021437;28;20467;-56
2023/05/05 09:31:30;;;;;;;23.23;17.23;;;;;;;;;;5029217;28;20367;-62
2023/05/05 09:33:59;;;;;;;24.40;16.90;;;;;;;;;;5029654;28;20026;-60
2023/05/05 09:36:46;;;;;;;21.27;17.02;;;;;;;;;;5029432;28;20035;-60
2023/05/05 09:39:12;;;;;;;21.23;16.38;;;;;;;;;;5027091;28;20051;-63
2023/05/05 09:41:45;;;;;;;21.85;16.50;;;;;;;;;;5033256;28;20072;-62
2023/05/05 09:44:12;;;;;;;22.35;16.08;;;;;;;;;;5033150;28;20025;-60
2023/05/05 09:46:38;;;;;;;20.33;15.35;;;;;;;;;;5033967;28;20021;-61
2023/05/05 09:49:15;;;;;;;20.55;16.67;;;;;;;;;;5033435;28;20021;-62
2023/05/05 09:51:41;;;;;;;22.25;17.10;;;;;;;;;;5015486;28;20021;-62
2023/05/05 09:54:07;;;;;;;23.10;17.20;;;;;;;;;;5032403;28;20104;-64
2023/05/05 09:56:38;;;;;;;21.92;16.90;;;;;;;;;;5013783;28;20048;-62
2023/05/05 09:59:10;;;;;;;21.35;16.42;;;;;;;;;;5032887;28;20028;-61
2023/05/05 10:01:37;;;;;;;19.50;15.75;;;;;;;;;;5033301;28;20441;-60
2023/05/05 10:04:03;;;;;;;19.13;16.02;;;;;;;;;;5033441;28;20083;-60
2023/05/05 10:06:47;;;;;;;20.83;16.20;;;;;;;;;;4681781;28;9999830;-61
2023/05/05 10:09:14;;;;;;;22.30;15.90;;;;;;;;;;5030437;28;20013;-63
2023/05/05 10:11:41;;;;;;;21.42;16.33;;;;;;;;;;5030088;28;20707;-62
2023/05/05 10:14:07;;;;;;;20.85;16.35;;;;;;;;;;5030105;28;20026;-62
2023/05/05 10:16:35;;;;;;;22.55;16.75;;;;;;;;;;5030182;28;20104;-63
2023/05/05 10:19:01;;;;;;;21.08;17.25;;;;;;;;;;5030149;28;20021;-62
2023/05/05 10:21:32;;;;;;;20.42;16.73;;;;;;;;;;5030299;28;20017;-61
2023/05/05 10:24:03;;;;;;;22.88;17.38;;;;;;;;;;5017287;28;20029;-62
2023/05/05 10:26:33;;;;;;;19.42;15.88;;;;;;;;;;5010219;28;20088;-61
2023/05/05 10:29:00;;;;;;;21.25;15.30;;;;;;;;;;5010213;28;20026;-60
2023/05/05 10:31:48;;;;;;;20.75;16.40;;;;;;;;;;5010258;28;20505;-61
2023/05/05 10:34:34;;;;;;;21.63;16.50;;;;;;;;;;5010229;28;20034;-62
2023/05/05 10:37:00;;;;;;;23.60;17.30;;;;;;;;;;5009615;28;20032;-57
2023/05/05 10:39:27;;;;;;;19.42;15.55;;;;;;;;;;5010134;28;20159;-61
2023/05/05 10:41:53;;;;;;;21.92;16.55;;;;;;;;;;5009520;28;20556;-62
2023/05/05 10:44:19;;;;;;;20.67;16.90;;;;;;;;;;5009452;28;20641;-62
2023/05/05 10:46:45;;;;;;;19.20;15.88;;;;;;;;;;5009421;28;20041;-63
2023/05/05 10:49:20;;;;;;;20.92;16.17;;;;;;;;;;5009025;28;20038;-62
2023/05/05 10:51:49;;;;;;;21.10;16.77;;;;;;;;;;5009369;28;20045;-60
2023/05/05 10:54:32;;;;;;;21.88;16.35;;;;;;;;;;5009250;28;20045;-63
2023/05/05 10:57:03;;;;;;;21.42;16.08;;;;;;;;;;5009245;28;20021;-61
2023/05/05 10:59:35;;;;;;;20.17;16.48;;;;;;;;;;5009720;28;20494;-60
2023/05/05 11:02:01;;;;;;;21.75;16.23;;;;;;;;;;5009550;28;20065;-62
2023/05/05 11:04:27;;;;;;;22.00;16.35;;;;;;;;;;4992759;28;20544;-63
2023/05/05 11:07:09;;;;;;;20.67;16.63;;;;;;;;;;5027265;28;20029;-63
2023/05/05 11:09:37;;;;;;;21.77;16.17;;;;;;;;;;5031917;28;20125;-62
2023/05/05 11:12:06;;;;;;;18.55;14.80;;;;;;;;;;5014017;28;20493;-60
2023/05/05 11:14:32;;;;;;;18.92;14.65;;;;;;;;;;5031384;28;20029;-62
2023/05/05 11:16:58;;;;;;;18.40;14.52;;;;;;;;;;5031602;28;20070;-60
2023/05/05 11:19:43;;;;;;;20.05;15.65;;;;;;;;;;5013682;28;20339;-63
2023/05/05 11:22:10;;;;;;;19.48;14.68;;;;;;;;;;5031793;28;20493;-62
2023/05/05 11:24:38;;;;;;;19.58;14.73;;;;;;;;;;5031624;28;20044;-61
2023/05/05 11:27:04;;;;;;;18.48;14.23;;;;;;;;;;5032091;28;20635;-60
2023/05/05 11:29:49;;;;;;;18.83;14.57;;;;;;;;;;5014796;28;20093;-61
2023/05/05 11:32:15;;;;;;;20.55;15.32;;;;;;;;;;5032171;28;20022;-63
2023/05/05 11:34:48;;;;;;;19.20;15.20;;;;;;;;;;5031567;28;20030;-61
2023/05/05 11:37:17;;;;;;;19.35;15.45;;;;;;;;;;5031441;28;20025;-60
2023/05/05 11:39:43;;;;;;;19.20;15.38;;;;;;;;;;5031436;28;20037;-63
2023/05/05 11:42:21;;;;;;;18.65;15.45;;;;;;;;;;5031434;28;20022;-60
2023/05/05 11:44:47;;;;;;;19.53;14.83;;;;;;;;;;5031422;28;20033;-62
2023/05/05 11:47:13;;;;;;;18.55;14.43;;;;;;;;;;5046467;23;20079;-59
2023/05/05 11:49:39;;;;;;;17.40;13.02;;;;;;;;;;5011821;28;20505;-58
2023/05/05 11:52:06;;;;;;;16.52;12.45;;;;;;;;;;5012510;28;20101;-60
2023/05/05 11:54:34;;;;;;;17.25;13.80;;;;;;;;;;5012482;28;20028;-61
2023/05/05 11:57:03;;;;;;;17.77;14.25;;;;;;;;;;5012403;28;20033;-60
2023/05/05 11:59:30;;;;;;;17.67;13.98;;;;;;;;;;4991892;28;20029;-59
2023/05/05 12:01:56;;;;;;;17.13;13.45;;;;;;;;;;4991869;28;20061;-59
2023/05/05 12:04:22;;;;;;;17.80;13.32;;;;;;;;;;4992058;28;20497;-62
2023/05/05 12:06:48;;;;;;;17.88;14.10;;;;;;;;;;4992047;28;20109;-62
2023/05/05 12:09:18;;;;;;;18.73;14.13;;;;;;;;;;4992378;28;20064;-61
2023/05/05 12:11:54;;;;;;;18.10;13.73;;;;;;;;;;4992256;28;20029;-59
2023/05/05 12:14:20;;;;;;;22.35;13.50;;;;;;;;;;4997092;28;20076;-57
2023/05/05 12:16:56;;;;;;;18.40;13.15;;;;;;;;;;5011619;28;20095;-61
2023/05/05 12:19:22;;;;;;;18.73;14.00;;;;;;;;;;5010320;28;20389;-60
2023/05/05 12:21:48;;;;;;;17.25;13.57;;;;;;;;;;5011858;28;20100;-58
2023/05/05 12:24:14;;;;;;;16.83;13.55;;;;;;;;;;5011700;28;20025;-60
2023/05/05 12:26:40;;;;;;;18.33;14.13;;;;;;;;;;5012253;28;20037;-59
2023/05/05 12:29:06;;;;;;;17.05;13.43;;;;;;;;;;5011932;28;20501;-58
2023/05/05 12:31:38;;;;;;;19.20;13.40;;;;;;;;;;5011788;28;20478;-60
2023/05/05 12:34:05;;;;;;;17.08;12.45;;;;;;;;;;5011350;28;20025;-60
2023/05/05 12:36:38;;;;;;;17.85;13.13;;;;;;;;;;5011391;28;20022;-61
2023/05/05 12:39:04;;;;;;;19.90;14.05;;;;;;;;;;5011690;28;20057;-60
2023/05/05 12:41:30;;;;;;;17.38;12.70;;;;;;;;;;4992363;28;20029;-59
2023/05/05 12:44:00;;;;;;;17.63;13.27;;;;;;;;;;4991546;28;20397;-61
2023/05/05 12:46:28;;;;;;;17.05;12.50;;;;;;;;;;4991760;28;20069;-61
2023/05/05 12:49:04;;;;;;;19.05;12.32;;;;;;;;;;4991755;28;20034;-61
2023/05/05 12:51:31;;;;;;;19.55;12.77;;;;;;;;;;4991649;28;20036;-61
2023/05/05 12:54:01;;;;;;;16.63;12.00;;;;;;;;;;4991705;28;20060;-60
2023/05/05 12:56:30;;;;;;;16.40;11.63;;;;;;;;;;4991974;28;20026;-59
2023/05/05 12:58:56;;;;;;;17.55;12.30;;;;;;;;;;4991920;28;20018;-60
2023/05/05 13:01:22;;;;;;;17.05;12.35;;;;;;;;;;4992016;28;20033;-59
2023/05/05 13:04:03;;;;;;;16.45;11.65;;;;;;;;;;4992441;28;20094;-59
2023/05/05 13:06:30;;;;;;;18.08;11.98;;;;;;;;;;4990414;28;20062;-56
2023/05/05 13:08:56;;;;;;;17.17;12.20;;;;;;;;;;4991970;28;20034;-56
2023/05/05 13:11:22;;;;;;;16.75;11.25;;;;;;;;;;4992448;28;20077;-58
2023/05/05 13:13:48;;;;;;;18.98;11.90;;;;;;;;;;4998401;28;20023;-58
2023/05/05 13:16:14;;;;;;;16.63;11.25;;;;;;;;;;5017747;28;20025;-62
2023/05/05 13:18:44;;;;;;;16.13;11.80;;;;;;;;;;5017334;28;20030;-59
2023/05/05 13:21:10;;;;;;;17.10;12.40;;;;;;;;;;5018586;28;20049;-61
2023/05/05 13:23:36;;;;;;;17.67;12.40;;;;;;;;;;5016678;28;20065;-60
2023/05/05 13:26:02;;;;;;;17.95;12.90;;;;;;;;;;5017651;28;20434;-60
2023/05/05 13:28:28;;;;;;;18.10;11.73;;;;;;;;;;5015910;28;20037;-57
2023/05/05 13:30:55;;;;;;;16.45;11.57;;;;;;;;;;5017385;28;20398;-59
2023/05/05 13:33:21;;;;;;;17.23;12.30;;;;;;;;;;5017564;28;20025;-60
2023/05/05 13:35:46;;;;;;;14.23;10.70;;;;;;;;;;4322346;28;10021396;-60
2023/05/05 13:38:12;;;;;;;16.17;11.88;;;;;;;;;;4994926;28;20100;-58
2023/05/05 13:40:38;;;;;;;16.20;11.60;;;;;;;;;;4993900;28;20041;-60
2023/05/05 13:43:04;;;;;;;17.23;11.80;;;;;;;;;;4994939;28;20030;-59
2023/05/05 13:45:32;;;;;;;16.83;12.90;;;;;;;;;;4994494;28;20479;-59
2023/05/05 13:47:58;;;;;;;19.73;15.80;;;;;;;;;;4993098;28;20116;-60
2023/05/05 13:50:24;;;;;;;21.20;19.00;;;;;;;;;;4994754;28;20325;-59
2023/05/05 13:52:51;;;;;;;32.42;29.73;;;;;;;;;;4994674;28;20565;-59
2023/05/05 13:55:17;;;;;;;47.35;43.78;;;;;;;;;;4992815;28;20022;-56
2023/05/05 13:57:43;;;;;;;51.88;48.17;;;;;;;;;;4994470;28;20031;-59
2023/05/05 14:00:09;;;;;;;47.38;44.03;;;;;;;;;;4994840;28;20520;-57
2023/05/05 14:02:35;;;;;;;40.67;37.47;;;;;;;;;;4995275;28;20743;-55
2023/05/05 14:05:01;;;;;;;32.30;29.40;;;;;;;;;;4994638;28;20038;-62
2023/05/05 14:07:27;;;;;;;29.30;26.63;;;;;;;;;;4994595;28;20387;-59
2023/05/05 14:09:53;;;;;;;26.20;23.83;;;;;;;;;;4992914;28;20030;-60
2023/05/05 14:12:19;;;;;;;25.10;22.80;;;;;;;;;;4994505;28;20486;-59
2023/05/05 14:14:45;;;;;;;25.13;22.83;;;;;;;;;;5002781;28;20116;-58
2023/05/05 14:17:11;;;;;;;26.85;24.45;;;;;;;;;;4998358;28;20552;-59
2023/05/05 14:19:37;;;;;;;26.60;24.20;;;;;;;;;;4994576;28;20035;-59